sensor_id;sensor_type;location;lat;lon;timestamp;temperature;humidity
54622;DHT22;40521;53.146;6.556;2022-10-16T00:00:00;11.40;99.90
54622;DHT22;40521;53.146;6.556;2022-10-16T00:02:26;11.40;99.90
54622;DHT22;40521;53.146;6.556;2022-10-16T00:04:51;12.90;99.90
54622;DHT22;40521;53.146;6.556;2022-10-16T00:07:21;10.50;99.90
54622;DHT22;40521;53.146;6.556;2022-10-16T00:09:47;11.40;99.90
54622;DHT22;40521;53.146;6.556;2022-10-16T00:12:12;11.30;99.90
54622;DHT22;40521;53.146;6.556;2022-10-16T00:14:38;11.30;99.90
54622;DHT22;40521;53.146;6.556;2022-10-16T00:17:06;11.30;99.90
54622;DHT22;40521;53.146;6.556;2022-10-16T00:19:31;11.40;99.90
54622;DHT22;40521;53.146;6.556;2022-10-16T00:21:57;11.40;99.90
54622;DHT22;40521;53.146;6.556;2022-10-16T00:24:22;11.30;99.90
54622;DHT22;40521;53.146;6.556;2022-10-16T00:26:49;11.40;99.90
54622;DHT22;40521;53.146;6.556;2022-10-16T00:29:15;11.40;99.90
54622;DHT22;40521;53.146;6.556;2022-10-16T00:31:40;11.40;99.90
54622;DHT22;40521;53.146;6.556;2022-10-16T00:34:08;11.40;99.90
54622;DHT22;40521;53.146;6.556;2022-10-16T00:36:34;11.40;99.90
54622;DHT22;40521;53.146;6.556;2022-10-16T00:39:02;11.30;99.90
54622;DHT22;40521;53.146;6.556;2022-10-16T00:41:28;11.30;99.90
54622;DHT22;40521;53.146;6.556;2022-10-16T00:43:57;11.30;99.90
54622;DHT22;40521;53.146;6.556;2022-10-16T00:46:25;11.50;99.90
54622;DHT22;40521;53.146;6.556;2022-10-16T00:48:56;11.30;99.90
54622;DHT22;40521;53.146;6.556;2022-10-16T00:51:24;11.50;99.90
54622;DHT22;40521;53.146;6.556;2022-10-16T00:53:50;11.60;99.90
54622;DHT22;40521;53.146;6.556;2022-10-16T00:56:17;11.60;99.90
54622;DHT22;40521;53.146;6.556;2022-10-16T00:58:43;11.40;99.90
54622;DHT22;40521;53.146;6.556;2022-10-16T01:01:08;11.80;99.90
54622;DHT22;40521;53.146;6.556;2022-10-16T01:03:34;11.60;99.90
54622;DHT22;40521;53.146;6.556;2022-10-16T01:08:33;11.50;99.90
54622;DHT22;40521;53.146;6.556;2022-10-16T01:11:03;11.50;99.90
54622;DHT22;40521;53.146;6.556;2022-10-16T01:13:38;11.50;99.90
54622;DHT22;40521;53.146;6.556;2022-10-16T01:16:07;11.50;99.90
54622;DHT22;40521;53.146;6.556;2022-10-16T01:21:12;11.50;99.90
54622;DHT22;40521;53.146;6.556;2022-10-16T01:23:44;11.10;99.90
54622;DHT22;40521;53.146;6.556;2022-10-16T01:28:41;11.50;99.90
54622;DHT22;40521;53.146;6.556;2022-10-16T01:31:08;11.80;99.90
54622;DHT22;40521;53.146;6.556;2022-10-16T01:33:38;11.40;99.90
54622;DHT22;40521;53.146;6.556;2022-10-16T01:36:13;11.40;99.90
54622;DHT22;40521;53.146;6.556;2022-10-16T01:38:39;11.60;99.90
54622;DHT22;40521;53.146;6.556;2022-10-16T01:41:08;11.00;99.90
54622;DHT22;40521;53.146;6.556;2022-10-16T01:43:35;11.40;99.90
54622;DHT22;40521;53.146;6.556;2022-10-16T01:46:03;11.40;99.90
54622;DHT22;40521;53.146;6.556;2022-10-16T01:48:29;11.40;99.90
54622;DHT22;40521;53.146;6.556;2022-10-16T01:50:58;11.40;99.90
54622;DHT22;40521;53.146;6.556;2022-10-16T01:53:25;11.50;99.90
54622;DHT22;40521;53.146;6.556;2022-10-16T01:55:51;11.50;99.90
54622;DHT22;40521;53.146;6.556;2022-10-16T01:58:18;11.40;99.90
54622;DHT22;40521;53.146;6.556;2022-10-16T02:00:44;11.70;99.90
54622;DHT22;40521;53.146;6.556;2022-10-16T02:03:12;11.50;99.90
54622;DHT22;40521;53.146;6.556;2022-10-16T02:08:04;11.70;99.90
54622;DHT22;40521;53.146;6.556;2022-10-16T02:10:30;11.60;99.90
54622;DHT22;40521;53.146;6.556;2022-10-16T02:15:42;9.60;99.90
54622;DHT22;40521;53.146;6.556;2022-10-16T02:18:08;11.70;99.90
54622;DHT22;40521;53.146;6.556;2022-10-16T02:20:40;12.00;99.90
54622;DHT22;40521;53.146;6.556;2022-10-16T02:23:12;11.70;99.90
54622;DHT22;40521;53.146;6.556;2022-10-16T02:25:40;10.70;99.90
54622;DHT22;40521;53.146;6.556;2022-10-16T02:28:12;11.60;99.90
54622;DHT22;40521;53.146;6.556;2022-10-16T02:30:49;11.60;99.90
54622;DHT22;40521;53.146;6.556;2022-10-16T02:33:16;11.60;99.90
54622;DHT22;40521;53.146;6.556;2022-10-16T02:35:43;11.90;99.90
54622;DHT22;40521;53.146;6.556;2022-10-16T02:38:09;11.10;99.90
54622;DHT22;40521;53.146;6.556;2022-10-16T02:40:35;11.90;99.90
54622;DHT22;40521;53.146;6.556;2022-10-16T02:43:03;11.90;99.90
54622;DHT22;40521;53.146;6.556;2022-10-16T02:45:30;10.10;99.90
54622;DHT22;40521;53.146;6.556;2022-10-16T02:48:03;11.80;99.90
54622;DHT22;40521;53.146;6.556;2022-10-16T02:50:31;12.20;99.90
54622;DHT22;40521;53.146;6.556;2022-10-16T02:52:57;11.90;99.90
54622;DHT22;40521;53.146;6.556;2022-10-16T02:55:25;11.80;99.90
54622;DHT22;40521;53.146;6.556;2022-10-16T02:57:55;11.90;99.90
54622;DHT22;40521;53.146;6.556;2022-10-16T03:00:21;12.30;99.90
54622;DHT22;40521;53.146;6.556;2022-10-16T03:02:47;12.00;99.90
54622;DHT22;40521;53.146;6.556;2022-10-16T03:05:15;11.50;99.90
54622;DHT22;40521;53.146;6.556;2022-10-16T03:07:41;12.50;99.90
54622;DHT22;40521;53.146;6.556;2022-10-16T03:10:06;11.90;99.90
54622;DHT22;40521;53.146;6.556;2022-10-16T03:12:37;12.10;99.90
54622;DHT22;40521;53.146;6.556;2022-10-16T03:15:03;11.90;99.90
54622;DHT22;40521;53.146;6.556;2022-10-16T03:17:39;12.20;99.90
54622;DHT22;40521;53.146;6.556;2022-10-16T03:20:08;12.00;99.90
54622;DHT22;40521;53.146;6.556;2022-10-16T03:22:36;12.00;99.90
54622;DHT22;40521;53.146;6.556;2022-10-16T03:25:02;11.90;99.90
54622;DHT22;40521;53.146;6.556;2022-10-16T03:27:30;12.40;99.90
54622;DHT22;40521;53.146;6.556;2022-10-16T03:30:01;11.90;99.90
54622;DHT22;40521;53.146;6.556;2022-10-16T03:32:29;11.90;99.90
54622;DHT22;40521;53.146;6.556;2022-10-16T03:34:57;12.10;99.90
54622;DHT22;40521;53.146;6.556;2022-10-16T03:37:25;11.80;99.90
54622;DHT22;40521;53.146;6.556;2022-10-16T03:39:53;11.80;99.90
54622;DHT22;40521;53.146;6.556;2022-10-16T03:42:21;11.80;99.90
54622;DHT22;40521;53.146;6.556;2022-10-16T03:44:49;11.80;99.90
54622;DHT22;40521;53.146;6.556;2022-10-16T03:47:15;11.90;99.90
54622;DHT22;40521;53.146;6.556;2022-10-16T03:49:48;12.00;99.90
54622;DHT22;40521;53.146;6.556;2022-10-16T03:52:16;12.00;99.90
54622;DHT22;40521;53.146;6.556;2022-10-16T03:54:42;11.70;99.90
54622;DHT22;40521;53.146;6.556;2022-10-16T03:57:08;13.50;99.90
54622;DHT22;40521;53.146;6.556;2022-10-16T03:59:34;11.80;99.90
54622;DHT22;40521;53.146;6.556;2022-10-16T04:02:02;11.70;99.90
54622;DHT22;40521;53.146;6.556;2022-10-16T04:04:27;11.70;99.90
54622;DHT22;40521;53.146;6.556;2022-10-16T04:06:53;11.90;99.90
54622;DHT22;40521;53.146;6.556;2022-10-16T04:09:21;11.60;99.90
54622;DHT22;40521;53.146;6.556;2022-10-16T04:11:47;11.70;99.90
54622;DHT22;40521;53.146;6.556;2022-10-16T04:14:12;11.60;99.90
54622;DHT22;40521;53.146;6.556;2022-10-16T04:16:46;12.20;99.90
54622;DHT22;40521;53.146;6.556;2022-10-16T04:19:14;11.80;99.90
54622;DHT22;40521;53.146;6.556;2022-10-16T04:21:42;11.60;99.90
54622;DHT22;40521;53.146;6.556;2022-10-16T04:24:08;12.30;99.90
54622;DHT22;40521;53.146;6.556;2022-10-16T04:26:33;11.50;99.90
54622;DHT22;40521;53.146;6.556;2022-10-16T04:28:59;10.50;99.90
54622;DHT22;40521;53.146;6.556;2022-10-16T04:31:25;11.60;99.90
54622;DHT22;40521;53.146;6.556;2022-10-16T04:33:50;11.60;99.90
54622;DHT22;40521;53.146;6.556;2022-10-16T04:36:18;11.50;99.90
54622;DHT22;40521;53.146;6.556;2022-10-16T04:38:44;11.60;99.90
54622;DHT22;40521;53.146;6.556;2022-10-16T04:41:10;11.50;99.90
54622;DHT22;40521;53.146;6.556;2022-10-16T04:43:35;11.50;99.90
54622;DHT22;40521;53.146;6.556;2022-10-16T04:46:01;11.50;99.90
54622;DHT22;40521;53.146;6.556;2022-10-16T04:48:30;11.40;99.90
54622;DHT22;40521;53.146;6.556;2022-10-16T04:50:56;11.60;99.90
54622;DHT22;40521;53.146;6.556;2022-10-16T04:53:21;11.50;99.90
54622;DHT22;40521;53.146;6.556;2022-10-16T04:55:47;11.60;99.90
54622;DHT22;40521;53.146;6.556;2022-10-16T04:58:15;12.00;99.90
54622;DHT22;40521;53.146;6.556;2022-10-16T05:00:44;12.10;99.90
54622;DHT22;40521;53.146;6.556;2022-10-16T05:03:12;11.80;99.90
54622;DHT22;40521;53.146;6.556;2022-10-16T05:05:41;12.00;99.90
54622;DHT22;40521;53.146;6.556;2022-10-16T05:08:07;12.00;99.90
54622;DHT22;40521;53.146;6.556;2022-10-16T05:10:35;11.90;99.90
54622;DHT22;40521;53.146;6.556;2022-10-16T05:13:01;12.30;99.90
54622;DHT22;40521;53.146;6.556;2022-10-16T05:15:32;12.30;99.90
54622;DHT22;40521;53.146;6.556;2022-10-16T05:18:02;12.20;99.90
54622;DHT22;40521;53.146;6.556;2022-10-16T05:20:28;11.90;99.90
54622;DHT22;40521;53.146;6.556;2022-10-16T05:22:54;11.90;99.90
54622;DHT22;40521;53.146;6.556;2022-10-16T05:25:22;11.80;99.90
54622;DHT22;40521;53.146;6.556;2022-10-16T05:27:50;11.60;99.90
54622;DHT22;40521;53.146;6.556;2022-10-16T05:30:19;11.90;99.90
54622;DHT22;40521;53.146;6.556;2022-10-16T05:32:52;11.80;99.90
54622;DHT22;40521;53.146;6.556;2022-10-16T05:35:38;11.90;99.90
54622;DHT22;40521;53.146;6.556;2022-10-16T05:38:11;11.60;99.90
54622;DHT22;40521;53.146;6.556;2022-10-16T05:40:39;11.70;99.90
54622;DHT22;40521;53.146;6.556;2022-10-16T05:43:14;11.60;99.90
54622;DHT22;40521;53.146;6.556;2022-10-16T05:45:40;11.60;99.90
54622;DHT22;40521;53.146;6.556;2022-10-16T05:48:08;11.70;99.90
54622;DHT22;40521;53.146;6.556;2022-10-16T05:50:36;11.70;99.90
54622;DHT22;40521;53.146;6.556;2022-10-16T05:53:12;11.60;99.90
54622;DHT22;40521;53.146;6.556;2022-10-16T05:55:37;11.70;99.90
54622;DHT22;40521;53.146;6.556;2022-10-16T05:58:06;11.90;99.90
54622;DHT22;40521;53.146;6.556;2022-10-16T06:00:31;10.50;99.90
54622;DHT22;40521;53.146;6.556;2022-10-16T06:03:05;11.80;99.90
54622;DHT22;40521;53.146;6.556;2022-10-16T06:05:33;11.90;99.90
54622;DHT22;40521;53.146;6.556;2022-10-16T06:08:10;9.90;99.90
54622;DHT22;40521;53.146;6.556;2022-10-16T06:10:38;11.80;99.90
54622;DHT22;40521;53.146;6.556;2022-10-16T06:13:03;11.70;99.90
54622;DHT22;40521;53.146;6.556;2022-10-16T06:15:32;11.80;99.90
54622;DHT22;40521;53.146;6.556;2022-10-16T06:18:00;11.80;99.90
54622;DHT22;40521;53.146;6.556;2022-10-16T06:20:28;12.00;99.90
54622;DHT22;40521;53.146;6.556;2022-10-16T06:22:54;11.70;99.90
54622;DHT22;40521;53.146;6.556;2022-10-16T06:25:22;11.70;99.90
54622;DHT22;40521;53.146;6.556;2022-10-16T06:27:48;11.80;99.90
54622;DHT22;40521;53.146;6.556;2022-10-16T06:30:13;11.70;99.90
54622;DHT22;40521;53.146;6.556;2022-10-16T06:32:52;11.90;99.90
54622;DHT22;40521;53.146;6.556;2022-10-16T06:35:20;11.80;99.90
54622;DHT22;40521;53.146;6.556;2022-10-16T06:37:48;12.60;99.90
54622;DHT22;40521;53.146;6.556;2022-10-16T06:40:16;12.20;99.90
54622;DHT22;40521;53.146;6.556;2022-10-16T06:42:42;12.20;99.90
54622;DHT22;40521;53.146;6.556;2022-10-16T06:45:17;12.10;99.90
54622;DHT22;40521;53.146;6.556;2022-10-16T06:47:46;12.20;99.90
54622;DHT22;40521;53.146;6.556;2022-10-16T06:50:14;12.10;99.90
54622;DHT22;40521;53.146;6.556;2022-10-16T06:52:40;12.30;99.90
54622;DHT22;40521;53.146;6.556;2022-10-16T06:55:08;12.40;99.90
54622;DHT22;40521;53.146;6.556;2022-10-16T06:57:33;12.10;99.90
54622;DHT22;40521;53.146;6.556;2022-10-16T06:59:59;11.70;99.90
54622;DHT22;40521;53.146;6.556;2022-10-16T07:02:25;12.40;99.90
54622;DHT22;40521;53.146;6.556;2022-10-16T07:04:53;12.40;99.90
54622;DHT22;40521;53.146;6.556;2022-10-16T07:07:24;12.60;99.90
54622;DHT22;40521;53.146;6.556;2022-10-16T07:13:19;12.40;99.90
54622;DHT22;40521;53.146;6.556;2022-10-16T07:15:45;12.70;99.90
54622;DHT22;40521;53.146;6.556;2022-10-16T07:18:10;12.70;99.90
54622;DHT22;40521;53.146;6.556;2022-10-16T07:20:42;12.60;99.90
54622;DHT22;40521;53.146;6.556;2022-10-16T07:23:13;12.20;99.90
54622;DHT22;40521;53.146;6.556;2022-10-16T07:25:46;14.20;99.90
54622;DHT22;40521;53.146;6.556;2022-10-16T07:28:18;12.40;99.90
54622;DHT22;40521;53.146;6.556;2022-10-16T07:30:46;12.90;99.90
54622;DHT22;40521;53.146;6.556;2022-10-16T07:33:17;10.30;99.90
54622;DHT22;40521;53.146;6.556;2022-10-16T07:35:52;12.40;99.90
54622;DHT22;40521;53.146;6.556;2022-10-16T07:38:19;12.30;99.90
54622;DHT22;40521;53.146;6.556;2022-10-16T07:40:48;12.40;99.90
54622;DHT22;40521;53.146;6.556;2022-10-16T07:43:14;12.40;99.90
54622;DHT22;40521;53.146;6.556;2022-10-16T07:45:49;10.90;99.90
54622;DHT22;40521;53.146;6.556;2022-10-16T07:48:15;12.50;99.90
54622;DHT22;40521;53.146;6.556;2022-10-16T07:50:46;12.50;99.90
54622;DHT22;40521;53.146;6.556;2022-10-16T07:53:14;11.70;99.90
54622;DHT22;40521;53.146;6.556;2022-10-16T07:55:40;12.70;99.90
54622;DHT22;40521;53.146;6.556;2022-10-16T07:58:06;12.80;99.90
54622;DHT22;40521;53.146;6.556;2022-10-16T08:00:37;12.70;99.90
54622;DHT22;40521;53.146;6.556;2022-10-16T08:03:03;12.80;99.90
54622;DHT22;40521;53.146;6.556;2022-10-16T08:05:29;13.30;99.90
54622;DHT22;40521;53.146;6.556;2022-10-16T08:07:59;13.40;99.90
54622;DHT22;40521;53.146;6.556;2022-10-16T08:10:34;15.40;99.90
54622;DHT22;40521;53.146;6.556;2022-10-16T08:12:59;13.00;99.90
54622;DHT22;40521;53.146;6.556;2022-10-16T08:15:44;13.30;99.90
54622;DHT22;40521;53.146;6.556;2022-10-16T08:18:29;12.90;99.90
54622;DHT22;40521;53.146;6.556;2022-10-16T08:21:11;13.00;99.90
54622;DHT22;40521;53.146;6.556;2022-10-16T08:23:39;12.40;99.90
54622;DHT22;40521;53.146;6.556;2022-10-16T08:26:07;12.90;99.90
54622;DHT22;40521;53.146;6.556;2022-10-16T08:28:33;12.80;99.90
54622;DHT22;40521;53.146;6.556;2022-10-16T08:31:09;11.60;99.90
54622;DHT22;40521;53.146;6.556;2022-10-16T08:33:35;12.90;99.90
54622;DHT22;40521;53.146;6.556;2022-10-16T08:36:02;12.90;99.90
54622;DHT22;40521;53.146;6.556;2022-10-16T08:38:30;13.00;99.90
54622;DHT22;40521;53.146;6.556;2022-10-16T08:41:02;13.50;99.90
54622;DHT22;40521;53.146;6.556;2022-10-16T08:43:54;13.70;99.90
54622;DHT22;40521;53.146;6.556;2022-10-16T08:48:58;13.30;99.90
54622;DHT22;40521;53.146;6.556;2022-10-16T08:51:28;13.30;99.90
54622;DHT22;40521;53.146;6.556;2022-10-16T08:53:57;13.50;99.90
54622;DHT22;40521;53.146;6.556;2022-10-16T08:56:24;13.80;99.90
54622;DHT22;40521;53.146;6.556;2022-10-16T08:58:50;13.70;99.90
54622;DHT22;40521;53.146;6.556;2022-10-16T09:01:17;13.60;99.90
54622;DHT22;40521;53.146;6.556;2022-10-16T09:06:17;14.30;99.90
54622;DHT22;40521;53.146;6.556;2022-10-16T09:11:30;14.00;99.90
54622;DHT22;40521;53.146;6.556;2022-10-16T09:14:25;14.50;99.90
54622;DHT22;40521;53.146;6.556;2022-10-16T09:17:15;13.30;99.90
54622;DHT22;40521;53.146;6.556;2022-10-16T09:19:46;13.00;99.90
54622;DHT22;40521;53.146;6.556;2022-10-16T09:22:19;14.40;99.90
54622;DHT22;40521;53.146;6.556;2022-10-16T09:24:52;14.50;99.90
54622;DHT22;40521;53.146;6.556;2022-10-16T09:27:29;14.40;99.90
54622;DHT22;40521;53.146;6.556;2022-10-16T09:29:55;14.50;99.90
54622;DHT22;40521;53.146;6.556;2022-10-16T09:32:21;13.30;99.90
54622;DHT22;40521;53.146;6.556;2022-10-16T09:34:50;15.00;99.90
54622;DHT22;40521;53.146;6.556;2022-10-16T09:37:18;14.60;99.90
54622;DHT22;40521;53.146;6.556;2022-10-16T09:39:45;14.80;99.90
54622;DHT22;40521;53.146;6.556;2022-10-16T09:42:15;14.80;99.90
54622;DHT22;40521;53.146;6.556;2022-10-16T09:44:46;14.80;99.90
54622;DHT22;40521;53.146;6.556;2022-10-16T09:47:14;14.80;99.90
54622;DHT22;40521;53.146;6.556;2022-10-16T09:49:56;14.60;99.90
54622;DHT22;40521;53.146;6.556;2022-10-16T09:52:27;14.50;99.90
54622;DHT22;40521;53.146;6.556;2022-10-16T09:54:57;14.90;99.90
54622;DHT22;40521;53.146;6.556;2022-10-16T09:57:31;14.90;99.90
54622;DHT22;40521;53.146;6.556;2022-10-16T09:59:59;14.80;99.90
54622;DHT22;40521;53.146;6.556;2022-10-16T10:02:29;14.80;99.90
54622;DHT22;40521;53.146;6.556;2022-10-16T10:04:56;14.80;99.90
54622;DHT22;40521;53.146;6.556;2022-10-16T10:07:35;15.50;99.90
54622;DHT22;40521;53.146;6.556;2022-10-16T10:10:04;15.20;99.90
54622;DHT22;40521;53.146;6.556;2022-10-16T10:12:32;15.50;99.90
54622;DHT22;40521;53.146;6.556;2022-10-16T10:15:06;14.90;99.90
54622;DHT22;40521;53.146;6.556;2022-10-16T10:17:32;15.80;99.90
54622;DHT22;40521;53.146;6.556;2022-10-16T10:19:59;16.00;99.90
54622;DHT22;40521;53.146;6.556;2022-10-16T10:30:42;15.80;99.90
54622;DHT22;40521;53.146;6.556;2022-10-16T10:36:05;15.90;99.90
54622;DHT22;40521;53.146;6.556;2022-10-16T10:38:56;16.20;99.90
54622;DHT22;40521;53.146;6.556;2022-10-16T10:41:36;15.70;99.90
54622;DHT22;40521;53.146;6.556;2022-10-16T10:49:50;16.20;99.90
54622;DHT22;40521;53.146;6.556;2022-10-16T11:00:50;15.90;99.90
54622;DHT22;40521;53.146;6.556;2022-10-16T11:19:14;16.10;99.90
54622;DHT22;40521;53.146;6.556;2022-10-16T11:21:49;15.20;99.90
54622;DHT22;40521;53.146;6.556;2022-10-16T11:24:21;16.20;99.90
54622;DHT22;40521;53.146;6.556;2022-10-16T11:26:47;16.60;99.90
54622;DHT22;40521;53.146;6.556;2022-10-16T11:29:23;16.60;99.90
54622;DHT22;40521;53.146;6.556;2022-10-16T11:31:52;16.40;99.90
54622;DHT22;40521;53.146;6.556;2022-10-16T11:39:38;16.20;99.90
54622;DHT22;40521;53.146;6.556;2022-10-16T11:42:15;16.30;99.90
54622;DHT22;40521;53.146;6.556;2022-10-16T11:44:57;16.20;99.90
54622;DHT22;40521;53.146;6.556;2022-10-16T11:47:27;15.90;99.90
54622;DHT22;40521;53.146;6.556;2022-10-16T11:50:04;15.70;99.90
54622;DHT22;40521;53.146;6.556;2022-10-16T11:52:35;15.80;99.90
54622;DHT22;40521;53.146;6.556;2022-10-16T11:57:39;16.00;99.90
54622;DHT22;40521;53.146;6.556;2022-10-16T12:00:22;14.70;99.90
54622;DHT22;40521;53.146;6.556;2022-10-16T12:02:54;15.90;99.90
54622;DHT22;40521;53.146;6.556;2022-10-16T12:08:11;15.40;99.90
54622;DHT22;40521;53.146;6.556;2022-10-16T12:10:39;15.80;99.90
54622;DHT22;40521;53.146;6.556;2022-10-16T12:13:25;15.40;99.90
54622;DHT22;40521;53.146;6.556;2022-10-16T12:16:03;14.30;99.90
54622;DHT22;40521;53.146;6.556;2022-10-16T12:18:42;16.20;99.90
54622;DHT22;40521;53.146;6.556;2022-10-16T12:21:09;16.20;99.90
54622;DHT22;40521;53.146;6.556;2022-10-16T12:23:47;16.40;99.90
54622;DHT22;40521;53.146;6.556;2022-10-16T12:26:32;15.20;99.90
54622;DHT22;40521;53.146;6.556;2022-10-16T12:31:48;16.90;99.90
54622;DHT22;40521;53.146;6.556;2022-10-16T12:34:20;17.30;99.90
54622;DHT22;40521;53.146;6.556;2022-10-16T12:36:46;17.30;99.90
54622;DHT22;40521;53.146;6.556;2022-10-16T12:39:20;17.20;99.90
54622;DHT22;40521;53.146;6.556;2022-10-16T12:42:03;17.40;99.90
54622;DHT22;40521;53.146;6.556;2022-10-16T12:44:34;17.50;99.90
54622;DHT22;40521;53.146;6.556;2022-10-16T12:47:01;17.30;99.90
54622;DHT22;40521;53.146;6.556;2022-10-16T12:49:35;17.40;99.90
54622;DHT22;40521;53.146;6.556;2022-10-16T12:52:04;17.10;99.90
54622;DHT22;40521;53.146;6.556;2022-10-16T12:54:31;16.90;99.90
54622;DHT22;40521;53.146;6.556;2022-10-16T12:59:38;16.80;99.90
54622;DHT22;40521;53.146;6.556;2022-10-16T13:10:35;16.10;99.90
54622;DHT22;40521;53.146;6.556;2022-10-16T13:15:28;16.00;99.90
54622;DHT22;40521;53.146;6.556;2022-10-16T13:18:13;15.90;99.90
54622;DHT22;40521;53.146;6.556;2022-10-16T13:20:51;15.90;99.90
54622;DHT22;40521;53.146;6.556;2022-10-16T13:23:27;15.90;99.90
54622;DHT22;40521;53.146;6.556;2022-10-16T13:26:01;15.90;99.90
54622;DHT22;40521;53.146;6.556;2022-10-16T13:28:33;15.90;99.90
54622;DHT22;40521;53.146;6.556;2022-10-16T13:31:05;15.90;99.90
54622;DHT22;40521;53.146;6.556;2022-10-16T13:33:49;14.90;99.90
54622;DHT22;40521;53.146;6.556;2022-10-16T13:39:11;16.20;99.90
54622;DHT22;40521;53.146;6.556;2022-10-16T13:41:37;16.20;99.90
54622;DHT22;40521;53.146;6.556;2022-10-16T13:44:03;15.30;99.90
54622;DHT22;40521;53.146;6.556;2022-10-16T13:46:29;16.30;99.90
54622;DHT22;40521;53.146;6.556;2022-10-16T13:49:00;16.40;99.90
54622;DHT22;40521;53.146;6.556;2022-10-16T13:51:29;16.50;99.90
54622;DHT22;40521;53.146;6.556;2022-10-16T13:53:58;16.60;99.90
54622;DHT22;40521;53.146;6.556;2022-10-16T13:56:28;17.10;99.90
54622;DHT22;40521;53.146;6.556;2022-10-16T13:59:01;15.50;99.90
54622;DHT22;40521;53.146;6.556;2022-10-16T14:01:32;16.40;99.90
54622;DHT22;40521;53.146;6.556;2022-10-16T14:04:09;16.20;99.90
54622;DHT22;40521;53.146;6.556;2022-10-16T14:06:41;15.90;99.90
54622;DHT22;40521;53.146;6.556;2022-10-16T14:09:29;15.90;99.90
54622;DHT22;40521;53.146;6.556;2022-10-16T14:11:58;15.90;99.90
54622;DHT22;40521;53.146;6.556;2022-10-16T14:14:39;16.10;99.90
54622;DHT22;40521;53.146;6.556;2022-10-16T14:17:16;16.20;99.90
54622;DHT22;40521;53.146;6.556;2022-10-16T14:19:50;16.40;99.90
54622;DHT22;40521;53.146;6.556;2022-10-16T14:22:57;16.50;99.90
54622;DHT22;40521;53.146;6.556;2022-10-16T14:28:00;16.70;99.90
54622;DHT22;40521;53.146;6.556;2022-10-16T14:30:26;16.60;99.90
54622;DHT22;40521;53.146;6.556;2022-10-16T14:32:59;16.50;99.90
54622;DHT22;40521;53.146;6.556;2022-10-16T14:35:27;16.40;99.90
54622;DHT22;40521;53.146;6.556;2022-10-16T14:37:56;16.20;99.90
54622;DHT22;40521;53.146;6.556;2022-10-16T14:40:24;16.20;99.90
54622;DHT22;40521;53.146;6.556;2022-10-16T14:42:50;16.00;99.90
54622;DHT22;40521;53.146;6.556;2022-10-16T14:45:20;15.90;99.90
54622;DHT22;40521;53.146;6.556;2022-10-16T14:47:54;15.80;99.90
54622;DHT22;40521;53.146;6.556;2022-10-16T14:50:21;15.40;99.90
54622;DHT22;40521;53.146;6.556;2022-10-16T14:52:47;15.70;99.90
54622;DHT22;40521;53.146;6.556;2022-10-16T14:55:13;15.50;99.90
54622;DHT22;40521;53.146;6.556;2022-10-16T14:57:38;15.40;99.90
54622;DHT22;40521;53.146;6.556;2022-10-16T15:00:09;15.30;99.90
54622;DHT22;40521;53.146;6.556;2022-10-16T15:02:39;14.40;99.90
54622;DHT22;40521;53.146;6.556;2022-10-16T15:05:24;15.20;99.90
54622;DHT22;40521;53.146;6.556;2022-10-16T15:07:51;14.70;99.90
54622;DHT22;40521;53.146;6.556;2022-10-16T15:10:18;15.10;99.90
54622;DHT22;40521;53.146;6.556;2022-10-16T15:12:45;15.10;99.90
54622;DHT22;40521;53.146;6.556;2022-10-16T15:17:51;14.80;99.90
54622;DHT22;40521;53.146;6.556;2022-10-16T15:20:25;15.00;99.90
54622;DHT22;40521;53.146;6.556;2022-10-16T15:22:50;15.00;99.90
54622;DHT22;40521;53.146;6.556;2022-10-16T15:25:32;14.90;99.90
54622;DHT22;40521;53.146;6.556;2022-10-16T15:28:01;14.90;99.90
54622;DHT22;40521;53.146;6.556;2022-10-16T15:30:30;14.90;99.90
54622;DHT22;40521;53.146;6.556;2022-10-16T15:33:03;14.90;99.90
54622;DHT22;40521;53.146;6.556;2022-10-16T15:35:37;14.90;99.90
54622;DHT22;40521;53.146;6.556;2022-10-16T15:38:12;14.80;99.90
54622;DHT22;40521;53.146;6.556;2022-10-16T15:40:40;14.80;99.90
54622;DHT22;40521;53.146;6.556;2022-10-16T15:43:09;14.60;99.90
54622;DHT22;40521;53.146;6.556;2022-10-16T15:45:37;14.70;99.90
54622;DHT22;40521;53.146;6.556;2022-10-16T15:48:03;14.60;99.90
54622;DHT22;40521;53.146;6.556;2022-10-16T15:50:34;14.60;99.90
54622;DHT22;40521;53.146;6.556;2022-10-16T15:53:05;14.40;99.90
54622;DHT22;40521;53.146;6.556;2022-10-16T15:55:34;14.50;99.90
54622;DHT22;40521;53.146;6.556;2022-10-16T15:58:03;15.00;99.90
54622;DHT22;40521;53.146;6.556;2022-10-16T16:00:45;14.30;99.90
54622;DHT22;40521;53.146;6.556;2022-10-16T16:03:18;14.20;99.90
54622;DHT22;40521;53.146;6.556;2022-10-16T16:05:44;14.20;99.90
54622;DHT22;40521;53.146;6.556;2022-10-16T16:08:27;14.70;99.90
54622;DHT22;40521;53.146;6.556;2022-10-16T16:11:19;14.10;99.90
54622;DHT22;40521;53.146;6.556;2022-10-16T16:14:07;14.00;99.90
54622;DHT22;40521;53.146;6.556;2022-10-16T16:16:40;14.00;99.90
54622;DHT22;40521;53.146;6.556;2022-10-16T16:19:17;13.40;99.90
54622;DHT22;40521;53.146;6.556;2022-10-16T16:21:48;13.90;99.90
54622;DHT22;40521;53.146;6.556;2022-10-16T16:24:16;13.70;99.90
54622;DHT22;40521;53.146;6.556;2022-10-16T16:27:00;13.70;99.90
54622;DHT22;40521;53.146;6.556;2022-10-16T16:29:28;13.70;99.90
54622;DHT22;40521;53.146;6.556;2022-10-16T16:31:56;13.70;99.90
54622;DHT22;40521;53.146;6.556;2022-10-16T16:34:37;13.70;99.90
54622;DHT22;40521;53.146;6.556;2022-10-16T16:37:03;12.60;99.90
54622;DHT22;40521;53.146;6.556;2022-10-16T16:39:33;14.20;99.90
54622;DHT22;40521;53.146;6.556;2022-10-16T16:42:40;13.40;99.90
54622;DHT22;40521;53.146;6.556;2022-10-16T16:45:11;12.20;99.90
54622;DHT22;40521;53.146;6.556;2022-10-16T16:47:40;13.20;99.90
54622;DHT22;40521;53.146;6.556;2022-10-16T16:50:06;13.20;99.90
54622;DHT22;40521;53.146;6.556;2022-10-16T16:52:32;13.20;99.90
54622;DHT22;40521;53.146;6.556;2022-10-16T16:55:21;13.10;99.90
54622;DHT22;40521;53.146;6.556;2022-10-16T16:57:50;13.10;99.90
54622;DHT22;40521;53.146;6.556;2022-10-16T17:00:15;13.10;99.90
54622;DHT22;40521;53.146;6.556;2022-10-16T17:02:43;13.00;99.90
54622;DHT22;40521;53.146;6.556;2022-10-16T17:05:10;13.00;99.90
54622;DHT22;40521;53.146;6.556;2022-10-16T17:07:36;12.80;99.90
54622;DHT22;40521;53.146;6.556;2022-10-16T17:10:14;12.90;99.90
54622;DHT22;40521;53.146;6.556;2022-10-16T17:12:42;12.80;99.90
54622;DHT22;40521;53.146;6.556;2022-10-16T17:15:08;12.70;99.90
54622;DHT22;40521;53.146;6.556;2022-10-16T17:17:38;12.60;99.90
54622;DHT22;40521;53.146;6.556;2022-10-16T17:23:55;12.60;99.90
54622;DHT22;40521;53.146;6.556;2022-10-16T17:26:20;12.50;99.90
54622;DHT22;40521;53.146;6.556;2022-10-16T17:28:49;12.50;99.90
54622;DHT22;40521;53.146;6.556;2022-10-16T17:31:18;12.40;99.90